Time;durP1;ratioP1;P1;durP2;ratioP2;P2;SDS_P1;SDS_P2;PMS_P1;PMS_P2;Temp;Humidity;BMP_temperature;BMP_pressure;BME280_temperature;BME280_humidity;BME280_pressure;Samples;Min_cycle;Max_cycle;Signal;HPM_P1;HPM_P2
2023/03/19 00:00:50;;;;;;;130.60;81.13;;;;;;;-141.22;100.00;65034.22;4970468;28;21065;-49
2023/03/19 00:03:18;;;;;;;110.47;77.07;;;;;;;-141.22;100.00;65034.22;4969282;28;20456;-51
2023/03/19 00:05:51;;;;;;;114.40;77.10;;;;;;;-141.22;100.00;65034.22;4969369;28;20498;-46
2023/03/19 00:08:19;;;;;;;106.67;76.10;;;;;;;-141.22;100.00;65034.22;4947581;28;20459;-45
2023/03/19 00:10:47;;;;;;;133.20;82.33;;;;;;;-141.22;100.00;65034.22;4969577;28;20497;-46
2023/03/19 00:13:15;;;;;;;127.20;80.63;;;;;;;-141.22;100.00;65034.22;4969702;28;20525;-49
2023/03/19 00:15:43;;;;;;;113.33;81.13;;;;;;;-141.22;100.00;65034.22;4969023;28;20477;-48
2023/03/19 00:18:12;;;;;;;126.90;84.87;;;;;;;-141.22;100.00;65034.22;4946779;28;21026;-47
2023/03/19 00:20:40;;;;;;;112.83;81.47;;;;;;;-141.22;100.00;65034.22;4969620;28;20443;-49
2023/03/19 00:23:08;;;;;;;111.77;79.27;;;;;;;-141.22;100.00;65034.22;4969152;28;20439;-49
2023/03/19 00:25:36;;;;;;;120.73;81.30;;;;;;;-141.22;100.00;65034.22;4969399;28;20469;-46
2023/03/19 00:28:03;;;;;;;112.67;78.47;;;;;;;-141.22;100.00;65034.22;4946116;28;20453;-48
2023/03/19 00:30:31;;;;;;;112.87;79.67;;;;;;;-141.22;100.00;65034.22;4970240;28;20501;-51
2023/03/19 00:32:59;;;;;;;109.80;85.30;;;;;;;-141.22;100.00;65034.22;4969460;28;20718;-49
2023/03/19 00:35:29;;;;;;;116.93;80.50;;;;;;;-141.22;100.00;65034.22;4968881;28;20547;-46
2023/03/19 00:37:56;;;;;;;119.90;81.47;;;;;;;-141.22;100.00;65034.22;4969217;28;20446;-49
2023/03/19 00:40:24;;;;;;;120.80;81.17;;;;;;;-141.22;100.00;65034.22;4950736;28;20463;-45
2023/03/19 00:42:51;;;;;;;109.37;79.80;;;;;;;-141.22;100.00;65034.22;4973158;28;20454;-53
2023/03/19 00:45:19;;;;;;;109.73;81.70;;;;;;;-141.22;100.00;65034.22;4972525;28;20505;-51
2023/03/19 00:47:48;;;;;;;123.50;79.93;;;;;;;-141.22;100.00;65034.22;4973650;28;20435;-51
2023/03/19 00:50:16;;;;;;;114.17;77.63;;;;;;;-141.22;100.00;65034.22;4950886;28;20488;-50
2023/03/19 00:52:45;;;;;;;116.90;81.00;;;;;;;-141.22;100.00;65034.22;4972040;28;20438;-49
2023/03/19 00:55:13;;;;;;;116.33;81.83;;;;;;;-141.22;100.00;65034.22;4973096;28;20489;-47
2023/03/19 00:57:41;;;;;;;108.33;81.77;;;;;;;-141.22;100.00;65034.22;4972690;28;20948;-47
2023/03/19 01:00:10;;;;;;;112.00;77.90;;;;;;;-141.22;100.00;65034.22;4950152;28;20454;-50
2023/03/19 01:02:38;;;;;;;106.13;77.53;;;;;;;-141.22;100.00;65034.22;4972823;28;20446;-51
2023/03/19 01:05:06;;;;;;;107.60;78.00;;;;;;;-141.22;100.00;65034.22;4972165;28;20470;-51
2023/03/19 01:07:34;;;;;;;110.77;80.97;;;;;;;-141.22;100.00;65034.22;4972772;28;20534;-47
2023/03/19 01:10:04;;;;;;;118.67;86.40;;;;;;;-141.22;100.00;65034.22;4958051;28;20490;-50
2023/03/19 01:12:31;;;;;;;106.50;78.70;;;;;;;-141.22;100.00;65034.22;4972409;28;20493;-48
2023/03/19 01:14:59;;;;;;;108.93;79.57;;;;;;;-141.22;100.00;65034.22;4972748;28;20461;-53
2023/03/19 01:17:27;;;;;;;112.23;76.97;;;;;;;-141.22;100.00;65034.22;4972745;28;20439;-47
2023/03/19 01:19:55;;;;;;;111.20;83.70;;;;;;;-141.22;100.00;65034.22;4950622;28;20519;-51
2023/03/19 01:22:22;;;;;;;110.17;81.30;;;;;;;-141.22;100.00;65034.22;4972769;28;21259;-47
2023/03/19 01:24:50;;;;;;;117.63;82.57;;;;;;;-141.22;100.00;65034.22;4972420;28;20458;-49
2023/03/19 01:27:20;;;;;;;107.53;77.90;;;;;;;-141.22;100.00;65034.22;4972157;28;20441;-44
2023/03/19 01:29:48;;;;;;;117.30;79.73;;;;;;;-141.22;100.00;65034.22;4972573;28;20485;-46
2023/03/19 01:32:16;;;;;;;118.73;81.87;;;;;;;-141.22;100.00;65034.22;4950273;28;21473;-51
2023/03/19 01:34:44;;;;;;;105.23;78.80;;;;;;;-141.22;100.00;65034.22;4971807;28;20797;-46
2023/03/19 01:37:11;;;;;;;99.70;73.23;;;;;;;-141.22;100.00;65034.22;4972410;28;20430;-44
2023/03/19 01:39:39;;;;;;;100.50;74.13;;;;;;;-141.22;100.00;65034.22;4972327;28;20418;-51
2023/03/19 01:42:07;;;;;;;109.10;80.77;;;;;;;-141.22;100.00;65034.22;4958877;28;20479;-53
2023/03/19 01:44:38;;;;;;;114.80;77.60;;;;;;;-141.22;100.00;65034.22;4972374;28;20441;-45
2023/03/19 01:47:24;;;;;;;102.40;74.60;;;;;;;-141.22;100.00;65034.22;4972073;28;20433;-51
2023/03/19 01:49:54;;;;;;;121.17;77.97;;;;;;;-141.22;100.00;65034.22;4971712;28;20415;-47
2023/03/19 01:52:24;;;;;;;121.80;81.40;;;;;;;-141.22;100.00;65034.22;4950309;28;20813;-46
2023/03/19 01:54:54;;;;;;;113.90;76.70;;;;;;;-141.22;100.00;65034.22;4971674;28;20968;-50
2023/03/19 01:57:23;;;;;;;109.87;75.87;;;;;;;-141.22;100.00;65034.22;4971162;28;20940;-49
2023/03/19 01:59:54;;;;;;;112.30;75.20;;;;;;;-141.22;100.00;65034.22;4971617;28;20825;-51
2023/03/19 02:02:28;;;;;;;114.93;75.97;;;;;;;-141.22;100.00;65034.22;4949330;28;20459;-49
2023/03/19 02:05:00;;;;;;;131.33;81.17;;;;;;;-141.22;100.00;65034.22;4971630;28;20466;-48
2023/03/19 02:07:30;;;;;;;120.00;77.40;;;;;;;-141.22;100.00;65034.22;4971564;28;20786;-48
2023/03/19 02:09:59;;;;;;;132.33;83.80;;;;;;;-141.22;100.00;65034.22;4971492;28;20450;-49
2023/03/19 02:12:27;;;;;;;144.50;84.80;;;;;;;-141.22;100.00;65034.22;4954186;28;20478;-50
2023/03/19 02:14:56;;;;;;;126.57;78.67;;;;;;;-141.22;100.00;65034.22;4969430;28;20754;-47
2023/03/19 02:17:24;;;;;;;123.73;79.37;;;;;;;-141.22;100.00;65034.22;4970258;28;20470;-52
2023/03/19 02:19:57;;;;;;;136.73;86.73;;;;;;;-141.22;100.00;65034.22;4971511;28;20811;-48
2023/03/19 02:22:29;;;;;;;119.43;79.10;;;;;;;-141.22;100.00;65034.22;4948775;28;20411;-52
2023/03/19 02:25:06;;;;;;;125.20;80.57;;;;;;;-141.22;100.00;65034.22;4971589;28;21054;-51
2023/03/19 02:27:35;;;;;;;124.60;82.07;;;;;;;-141.22;100.00;65034.22;4971120;28;21043;-47
2023/03/19 02:30:18;;;;;;;131.77;81.27;;;;;;;-141.22;100.00;65034.22;4971172;28;20450;-48
2023/03/19 02:32:46;;;;;;;138.43;85.53;;;;;;;-141.22;100.00;65034.22;4949326;28;20948;-48
2023/03/19 02:35:14;;;;;;;131.40;84.83;;;;;;;-141.22;100.00;65034.22;4971010;28;20462;-47
2023/03/19 02:37:41;;;;;;;121.67;78.60;;;;;;;-141.22;100.00;65034.22;4971656;28;20447;-47
2023/03/19 02:40:12;;;;;;;126.80;81.23;;;;;;;-141.22;100.00;65034.22;4971888;28;20450;-48
2023/03/19 02:42:41;;;;;;;126.60;81.53;;;;;;;-141.22;100.00;65034.22;4971126;28;20750;-44
2023/03/19 02:45:10;;;;;;;124.47;80.47;;;;;;;-141.22;100.00;65034.22;4950466;28;20556;-49
2023/03/19 02:47:38;;;;;;;136.50;83.30;;;;;;;-141.22;100.00;65034.22;4970792;28;20813;-48
2023/03/19 02:50:06;;;;;;;143.80;81.50;;;;;;;-141.22;100.00;65034.22;4971042;28;20439;-46
2023/03/19 02:52:35;;;;;;;145.43;85.00;;;;;;;-141.22;100.00;65034.22;4970969;28;20481;-44
2023/03/19 02:55:03;;;;;;;141.70;88.50;;;;;;;-141.22;100.00;65034.22;4947922;28;20475;-44
2023/03/19 02:57:30;;;;;;;138.80;84.57;;;;;;;-141.22;100.00;65034.22;4970832;28;20437;-48
2023/03/19 02:59:59;;;;;;;134.83;83.60;;;;;;;-141.22;100.00;65034.22;4970522;28;20445;-51
2023/03/19 03:02:27;;;;;;;124.73;75.50;;;;;;;-141.22;100.00;65034.22;4969475;28;20884;-50
2023/03/19 03:04:55;;;;;;;135.27;82.17;;;;;;;-141.22;100.00;65034.22;4959622;28;21172;-45
2023/03/19 03:07:22;;;;;;;141.17;84.70;;;;;;;-141.22;100.00;65034.22;4970747;28;20442;-46
2023/03/19 03:09:50;;;;;;;134.27;85.70;;;;;;;-141.22;100.00;65034.22;4970442;28;20442;-45
2023/03/19 03:12:18;;;;;;;148.27;88.40;;;;;;;-141.22;100.00;65034.22;4970491;28;20549;-48
2023/03/19 03:14:45;;;;;;;139.90;85.63;;;;;;;-141.22;100.00;65034.22;4957545;28;20500;-51
2023/03/19 03:17:15;;;;;;;146.33;84.90;;;;;;;-141.22;100.00;65034.22;4969802;28;20431;-45
2023/03/19 03:19:42;;;;;;;139.93;85.87;;;;;;;-141.22;100.00;65034.22;4969841;28;20442;-52
2023/03/19 03:22:10;;;;;;;151.97;95.50;;;;;;;-141.22;100.00;65034.22;4969963;28;20555;-50
2023/03/19 03:24:38;;;;;;;140.47;85.67;;;;;;;-141.22;100.00;65034.22;4946945;28;20498;-50
2023/03/19 03:27:07;;;;;;;135.30;84.43;;;;;;;-141.22;100.00;65034.22;4970695;28;20861;-51
2023/03/19 03:29:35;;;;;;;130.43;79.10;;;;;;;-141.22;100.00;65034.22;4969669;28;20434;-49
2023/03/19 03:32:03;;;;;;;139.47;83.90;;;;;;;-141.22;100.00;65034.22;4969995;28;20475;-48
2023/03/19 03:34:32;;;;;;;141.67;86.60;;;;;;;-141.22;100.00;65034.22;4969859;28;20907;-53
2023/03/19 03:37:00;;;;;;;139.43;92.30;;;;;;;-141.22;100.00;65034.22;4947157;28;20517;-46
2023/03/19 03:39:27;;;;;;;130.53;81.40;;;;;;;-141.22;100.00;65034.22;4969658;28;20431;-45
2023/03/19 03:41:55;;;;;;;149.20;92.20;;;;;;;-141.22;100.00;65034.22;4969881;28;20999;-46
2023/03/19 03:44:22;;;;;;;162.90;91.23;;;;;;;-141.22;100.00;65034.22;4969581;28;20485;-52
2023/03/19 03:46:50;;;;;;;149.63;87.63;;;;;;;-141.22;100.00;65034.22;4947652;28;20517;-45
2023/03/19 03:49:18;;;;;;;147.40;88.27;;;;;;;-141.22;100.00;65034.22;4969611;28;20439;-48
2023/03/19 03:51:47;;;;;;;161.77;93.13;;;;;;;-141.22;100.00;65034.22;4969834;28;20484;-45
2023/03/19 03:54:15;;;;;;;158.10;89.90;;;;;;;-141.22;100.00;65034.22;4969538;28;20473;-46
2023/03/19 03:56:43;;;;;;;153.33;85.90;;;;;;;-141.22;100.00;65034.22;4955008;28;20486;-45
2023/03/19 03:59:11;;;;;;;161.80;95.80;;;;;;;-141.22;100.00;65034.22;4969429;28;20475;-48
2023/03/19 04:01:38;;;;;;;140.60;88.33;;;;;;;-141.22;100.00;65034.22;4969328;28;20533;-48
2023/03/19 04:04:06;;;;;;;171.17;95.80;;;;;;;-141.22;100.00;65034.22;4969420;28;21282;-47
2023/03/19 04:06:34;;;;;;;130.93;86.40;;;;;;;-141.22;100.00;65034.22;4955769;28;20465;-46
2023/03/19 04:09:04;;;;;;;153.33;88.73;;;;;;;-141.22;100.00;65034.22;4969667;28;20678;-49
2023/03/19 04:11:31;;;;;;;136.73;83.53;;;;;;;-141.22;100.00;65034.22;4969515;28;20489;-49
2023/03/19 04:14:02;;;;;;;134.23;84.37;;;;;;;-141.22;100.00;65034.22;4968565;28;20442;-50
2023/03/19 04:16:29;;;;;;;139.03;84.93;;;;;;;-141.22;100.00;65034.22;4945942;28;20474;-50
2023/03/19 04:18:57;;;;;;;133.13;83.83;;;;;;;-141.22;100.00;65034.22;4969309;28;20474;-49
2023/03/19 04:21:26;;;;;;;124.53;81.37;;;;;;;-141.22;100.00;65034.22;4969416;28;20891;-51
2023/03/19 04:23:54;;;;;;;110.10;72.13;;;;;;;-141.22;100.00;65034.22;4969668;28;20427;-44
2023/03/19 04:26:23;;;;;;;104.63;73.87;;;;;;;-141.22;100.00;65034.22;4968616;28;20462;-49
2023/03/19 04:28:51;;;;;;;93.37;66.83;;;;;;;-141.22;100.00;65034.22;4946640;28;20470;-48
2023/03/19 04:31:18;;;;;;;93.70;65.83;;;;;;;-141.22;100.00;65034.22;4969286;28;20439;-48
2023/03/19 04:33:46;;;;;;;153.63;85.37;;;;;;;-141.22;100.00;65034.22;4969381;28;20431;-46
2023/03/19 04:36:14;;;;;;;149.43;91.87;;;;;;;-141.22;100.00;65034.22;4969438;28;20462;-50
2023/03/19 04:38:42;;;;;;;163.90;95.80;;;;;;;-141.22;100.00;65034.22;4946401;28;21295;-52
2023/03/19 04:41:09;;;;;;;147.70;91.40;;;;;;;-141.22;100.00;65034.22;4968837;28;20442;-50
2023/03/19 04:43:38;;;;;;;159.77;98.10;;;;;;;-141.22;100.00;65034.22;4969530;28;20442;-49
2023/03/19 04:46:06;;;;;;;143.73;90.97;;;;;;;-141.22;100.00;65034.22;4968921;28;20489;-50
2023/03/19 04:48:35;;;;;;;169.03;100.47;;;;;;;-141.22;100.00;65034.22;4947204;28;20459;-50
2023/03/19 04:51:03;;;;;;;188.40;99.67;;;;;;;-141.22;100.00;65034.22;4969247;28;20455;-47
2023/03/19 04:53:31;;;;;;;145.40;91.80;;;;;;;-141.22;100.00;65034.22;4968468;28;20486;-49
2023/03/19 04:55:59;;;;;;;145.90;89.90;;;;;;;-141.22;100.00;65034.22;4969035;28;20546;-48
2023/03/19 04:58:27;;;;;;;150.77;94.50;;;;;;;-141.22;100.00;65034.22;4946773;28;20469;-45
2023/03/19 05:00:56;;;;;;;146.93;88.37;;;;;;;-141.22;100.00;65034.22;4968453;28;20438;-46
2023/03/19 05:03:24;;;;;;;151.30;93.10;;;;;;;-141.22;100.00;65034.22;4969800;28;20445;-45
2023/03/19 05:05:53;;;;;;;172.37;100.00;;;;;;;-141.22;100.00;65034.22;4968910;28;20466;-48
2023/03/19 05:08:21;;;;;;;136.27;98.03;;;;;;;-141.22;100.00;65034.22;4963649;28;20450;-51
2023/03/19 05:10:48;;;;;;;182.77;102.77;;;;;;;-141.22;100.00;65034.22;4961600;28;20447;-47
2023/03/19 05:13:16;;;;;;;200.20;109.43;;;;;;;-141.22;100.00;65034.22;4968729;28;20475;-51
2023/03/19 05:15:47;;;;;;;153.70;92.13;;;;;;;-141.22;100.00;65034.22;4969255;28;20459;-46
2023/03/19 05:18:16;;;;;;;140.60;91.20;;;;;;;-141.22;100.00;65034.22;4968852;28;20486;-48
2023/03/19 05:20:45;;;;;;;160.07;98.50;;;;;;;-141.22;100.00;65034.22;4946511;28;20463;-47
2023/03/19 05:23:12;;;;;;;153.67;95.17;;;;;;;-141.22;100.00;65034.22;4968814;28;20438;-47
2023/03/19 05:25:40;;;;;;;189.30;104.17;;;;;;;-141.22;100.00;65034.22;4970342;28;21027;-52
2023/03/19 05:28:08;;;;;;;129.87;88.33;;;;;;;-141.22;100.00;65034.22;4972225;28;20443;-51
2023/03/19 05:30:37;;;;;;;145.47;93.57;;;;;;;-141.22;100.00;65034.22;4950060;28;20474;-50
2023/03/19 05:33:06;;;;;;;147.57;91.87;;;;;;;-141.22;100.00;65034.22;4971830;28;20525;-49
2023/03/19 05:35:37;;;;;;;139.20;94.10;;;;;;;-141.22;100.00;65034.22;4972297;28;20470;-49
2023/03/19 05:38:05;;;;;;;151.80;98.07;;;;;;;-141.22;100.00;65034.22;4972254;28;20465;-48
2023/03/19 05:40:33;;;;;;;124.27;89.07;;;;;;;-141.22;100.00;65034.22;4949341;28;20466;-51
2023/03/19 05:43:01;;;;;;;130.90;88.40;;;;;;;-141.22;100.00;65034.22;4971576;28;20824;-49
2023/03/19 05:45:29;;;;;;;135.80;91.57;;;;;;;-141.22;100.00;65034.22;4972442;28;20459;-45
2023/03/19 05:47:57;;;;;;;126.40;88.50;;;;;;;-141.22;100.00;65034.22;4972308;28;20450;-45
2023/03/19 05:50:25;;;;;;;145.77;91.97;;;;;;;-141.22;100.00;65034.22;4966517;28;20476;-45
2023/03/19 05:52:54;;;;;;;128.17;85.90;;;;;;;-141.22;100.00;65034.22;4971437;28;20475;-45
2023/03/19 05:55:22;;;;;;;104.10;81.13;;;;;;;-141.22;100.00;65034.22;4971602;28;20546;-46
2023/03/19 05:57:49;;;;;;;99.13;75.97;;;;;;;-141.22;100.00;65034.22;4971374;28;20435;-45
2023/03/19 06:00:18;;;;;;;124.10;85.10;;;;;;;-141.22;100.00;65034.22;4953195;28;20439;-52
2023/03/19 06:02:46;;;;;;;117.90;80.53;;;;;;;-141.22;100.00;65034.22;4972031;28;20439;-45
2023/03/19 06:05:14;;;;;;;133.13;84.97;;;;;;;-141.22;100.00;65034.22;4971530;28;21351;-45
2023/03/19 06:07:42;;;;;;;114.17;79.00;;;;;;;-141.22;100.00;65034.22;4971274;28;20438;-49
2023/03/19 06:10:12;;;;;;;118.10;79.40;;;;;;;-141.22;100.00;65034.22;4971933;28;20431;-46
2023/03/19 06:12:40;;;;;;;111.43;79.67;;;;;;;-141.22;100.00;65034.22;4948804;28;20855;-51
2023/03/19 06:15:09;;;;;;;102.00;77.10;;;;;;;-141.22;100.00;65034.22;4971327;28;20458;-49
2023/03/19 06:17:37;;;;;;;99.43;76.30;;;;;;;-141.22;100.00;65034.22;4971513;28;20446;-52
2023/03/19 06:20:05;;;;;;;99.83;78.07;;;;;;;-141.22;100.00;65034.22;4971787;28;20443;-45
2023/03/19 06:22:33;;;;;;;100.10;74.10;;;;;;;-141.22;100.00;65034.22;4948273;28;20473;-47
2023/03/19 06:25:00;;;;;;;109.53;77.80;;;;;;;-141.22;100.00;65034.22;4970985;28;20469;-47
2023/03/19 06:27:30;;;;;;;107.00;77.83;;;;;;;-141.22;100.00;65034.22;4971629;28;20443;-45
2023/03/19 06:29:57;;;;;;;103.57;77.37;;;;;;;-141.22;100.00;65034.22;4971214;28;21076;-45
2023/03/19 06:32:25;;;;;;;93.60;77.47;;;;;;;-141.22;100.00;65034.22;4957993;28;20549;-50
2023/03/19 06:34:54;;;;;;;117.37;80.63;;;;;;;-141.22;100.00;65034.22;4971018;28;20455;-49
2023/03/19 06:37:21;;;;;;;88.20;71.33;;;;;;;-141.22;100.00;65034.22;4970604;28;20427;-47
2023/03/19 06:39:49;;;;;;;88.13;68.87;;;;;;;-141.22;100.00;65034.22;4971300;28;20558;-51
2023/03/19 06:42:17;;;;;;;86.37;73.73;;;;;;;-141.22;100.00;65034.22;4948419;28;20505;-49
2023/03/19 06:44:47;;;;;;;101.13;78.80;;;;;;;-141.22;100.00;65034.22;4970889;28;20542;-50
2023/03/19 06:47:14;;;;;;;98.97;77.80;;;;;;;-141.22;100.00;65034.22;4971068;28;20488;-47
2023/03/19 06:49:42;;;;;;;90.93;74.43;;;;;;;-141.22;100.00;65034.22;4970585;28;20443;-48
2023/03/19 06:52:10;;;;;;;71.90;64.27;;;;;;;-141.22;100.00;65034.22;4949103;28;20462;-52
2023/03/19 06:54:37;;;;;;;88.00;71.67;;;;;;;-141.22;100.00;65034.22;4970467;28;20844;-49
2023/03/19 06:57:05;;;;;;;92.63;72.07;;;;;;;-141.22;100.00;65034.22;4970169;28;20442;-45
2023/03/19 06:59:33;;;;;;;69.77;62.70;;;;;;;-141.22;100.00;65034.22;4971075;28;20412;-46
2023/03/19 07:02:02;;;;;;;67.67;61.13;;;;;;;-141.22;100.00;65034.22;4947819;28;20450;-52
2023/03/19 07:04:30;;;;;;;76.17;67.60;;;;;;;-141.22;100.00;65034.22;4970141;28;20439;-45
2023/03/19 07:06:58;;;;;;;78.43;70.10;;;;;;;-141.22;100.00;65034.22;4970245;28;20901;-45
2023/03/19 07:09:26;;;;;;;77.73;69.47;;;;;;;-141.22;100.00;65034.22;4970659;28;20438;-51
2023/03/19 07:11:53;;;;;;;78.43;69.90;;;;;;;-141.22;100.00;65034.22;4970825;28;20431;-48
2023/03/19 07:14:21;;;;;;;76.90;70.20;;;;;;;-141.22;100.00;65034.22;4949247;28;21080;-49
2023/03/19 07:16:49;;;;;;;75.77;69.07;;;;;;;-141.22;100.00;65034.22;4971456;28;20434;-47
2023/03/19 07:19:18;;;;;;;76.33;69.40;;;;;;;-141.22;100.00;65034.22;4971678;28;20445;-46
2023/03/19 07:21:46;;;;;;;71.27;64.47;;;;;;;-141.22;100.00;65034.22;4971375;28;20534;-50
2023/03/19 07:24:13;;;;;;;64.23;58.43;;;;;;;-141.22;100.00;65034.22;4956792;28;20474;-45
2023/03/19 07:26:42;;;;;;;64.87;58.40;;;;;;;-141.22;100.00;65034.22;4971235;28;20450;-47
2023/03/19 07:29:10;;;;;;;65.03;59.00;;;;;;;-141.22;100.00;65034.22;4972196;28;20439;-48
2023/03/19 07:31:38;;;;;;;63.33;56.90;;;;;;;-141.22;100.00;65034.22;4971030;28;20431;-50
2023/03/19 07:34:06;;;;;;;63.20;57.10;;;;;;;-141.22;100.00;65034.22;4949104;28;20495;-51
2023/03/19 07:36:35;;;;;;;64.60;57.80;;;;;;;-141.22;100.00;65034.22;4971575;28;20455;-48
2023/03/19 07:39:03;;;;;;;61.60;54.90;;;;;;;-141.22;100.00;65034.22;4971665;28;20435;-50
2023/03/19 07:41:31;;;;;;;63.00;56.73;;;;;;;-141.22;100.00;65034.22;4970728;28;20469;-47
2023/03/19 07:43:58;;;;;;;57.63;51.97;;;;;;;-141.22;100.00;65034.22;4960699;28;20501;-47
2023/03/19 07:46:27;;;;;;;59.10;52.77;;;;;;;-141.22;100.00;65034.22;4971164;28;20530;-49
2023/03/19 07:48:54;;;;;;;66.37;59.30;;;;;;;-141.22;100.00;65034.22;4971362;28;20431;-48
2023/03/19 07:51:22;;;;;;;67.40;60.40;;;;;;;-141.22;100.00;65034.22;4971126;28;20443;-47
2023/03/19 07:53:51;;;;;;;61.40;55.23;;;;;;;-141.22;100.00;65034.22;4954833;28;21011;-49
2023/03/19 07:56:19;;;;;;;65.83;58.60;;;;;;;-141.22;100.00;65034.22;4972858;28;20461;-47
2023/03/19 07:58:46;;;;;;;64.80;58.00;;;;;;;-141.22;100.00;65034.22;4970364;28;20443;-45
2023/03/19 08:01:14;;;;;;;65.80;59.07;;;;;;;-141.22;100.00;65034.22;4971450;28;20438;-46
2023/03/19 08:03:42;;;;;;;65.97;59.10;;;;;;;-141.22;100.00;65034.22;4970634;28;20434;-46
2023/03/19 08:06:09;;;;;;;62.87;56.67;;;;;;;-141.22;100.00;65034.22;4957847;28;20505;-50
2023/03/19 08:08:37;;;;;;;62.50;56.20;;;;;;;-141.22;100.00;65034.22;4970014;28;21003;-52
2023/03/19 08:11:06;;;;;;;63.43;56.90;;;;;;;-141.22;100.00;65034.22;4970805;28;20435;-47
2023/03/19 08:13:34;;;;;;;61.77;55.37;;;;;;;-141.22;100.00;65034.22;4970324;28;20446;-47
2023/03/19 08:16:02;;;;;;;61.17;54.87;;;;;;;-141.22;100.00;65034.22;4948707;28;20966;-49
2023/03/19 08:18:30;;;;;;;58.07;52.70;;;;;;;-141.22;100.00;65034.22;4970108;28;20534;-52
2023/03/19 08:20:57;;;;;;;48.60;44.30;;;;;;;-141.22;100.00;65034.22;4969972;28;21032;-49
2023/03/19 08:23:25;;;;;;;44.70;41.10;;;;;;;-141.22;100.00;65034.22;4969715;28;20443;-49
2023/03/19 08:25:55;;;;;;;42.47;38.90;;;;;;;-141.22;100.00;65034.22;4943596;28;20482;-49
2023/03/19 08:28:24;;;;;;;44.07;41.00;;;;;;;-141.22;100.00;65034.22;4969154;28;20928;-47
2023/03/19 08:30:52;;;;;;;45.37;41.77;;;;;;;-141.22;100.00;65034.22;4923888;28;20459;-48
2023/03/19 08:33:20;;;;;;;45.00;41.40;;;;;;;-141.22;100.00;65034.22;4979357;23;20487;-48
2023/03/19 08:35:48;;;;;;;43.27;40.00;;;;;;;-141.22;100.00;65034.22;4938160;29;20469;-47
2023/03/19 08:38:16;;;;;;;42.30;39.40;;;;;;;-141.22;100.00;65034.22;4945393;29;20520;-49
2023/03/19 08:40:43;;;;;;;40.03;37.47;;;;;;;-141.22;100.00;65034.22;4950943;28;20464;-45
2023/03/19 08:43:11;;;;;;;41.20;38.37;;;;;;;-141.22;100.00;65034.22;4945147;29;20531;-48
2023/03/19 08:45:40;;;;;;;40.80;38.10;;;;;;;-141.22;100.00;65034.22;4932600;29;20432;-45
2023/03/19 08:48:08;;;;;;;46.33;42.60;;;;;;;-141.22;100.00;65034.22;4932323;29;20496;-44
2023/03/19 08:50:35;;;;;;;47.90;44.13;;;;;;;-141.22;100.00;65034.22;4932133;29;20523;-44
2023/03/19 08:53:05;;;;;;;43.00;39.70;;;;;;;-141.22;100.00;65034.22;4932171;29;21084;-48
2023/03/19 08:55:32;;;;;;;44.13;40.73;;;;;;;-141.22;100.00;65034.22;4933010;29;20483;-44
2023/03/19 08:58:00;;;;;;;43.40;40.10;;;;;;;-141.22;100.00;65034.22;4932779;29;20448;-44
2023/03/19 09:00:27;;;;;;;49.53;45.47;;;;;;;-141.22;100.00;65034.22;4934253;29;20436;-44
2023/03/19 09:02:56;;;;;;;45.53;41.63;;;;;;;-141.22;100.00;65034.22;4931953;28;20993;-45
2023/03/19 09:05:24;;;;;;;42.90;39.80;;;;;;;-141.22;100.00;65034.22;4935625;29;20492;-45
2023/03/19 09:07:55;;;;;;;41.37;38.47;;;;;;;-141.22;100.00;65034.22;4935283;29;20437;-48
2023/03/19 09:10:22;;;;;;;40.93;38.23;;;;;;;-141.22;100.00;65034.22;4935926;29;20444;-43
2023/03/19 09:12:50;;;;;;;41.63;38.53;;;;;;;-141.22;100.00;65034.22;4935050;29;20472;-46
2023/03/19 09:15:18;;;;;;;43.23;40.37;;;;;;;-141.22;100.00;65034.22;4935829;29;20468;-45
2023/03/19 09:17:46;;;;;;;39.67;37.07;;;;;;;-141.22;100.00;65034.22;4935753;29;20817;-46
2023/03/19 09:20:15;;;;;;;38.87;36.57;;;;;;;-141.22;100.00;65034.22;4936364;29;20476;-46
2023/03/19 09:22:43;;;;;;;37.37;35.17;;;;;;;-141.22;100.00;65034.22;4937757;28;20468;-49
2023/03/19 09:25:11;;;;;;;37.43;35.03;;;;;;;-141.22;100.00;65034.22;4955159;29;20434;-45
2023/03/19 09:27:38;;;;;;;37.57;35.27;;;;;;;-141.22;100.00;65034.22;4953831;28;20442;-45
2023/03/19 09:30:09;;;;;;;36.27;34.07;;;;;;;-141.22;100.00;65034.22;4954766;28;20526;-49
2023/03/19 09:32:37;;;;;;;37.70;35.50;;;;;;;-141.22;100.00;65034.22;4952812;28;20486;-46
2023/03/19 09:35:06;;;;;;;36.70;34.60;;;;;;;-141.22;100.00;65034.22;4954816;29;20545;-47
2023/03/19 09:37:36;;;;;;;35.97;33.87;;;;;;;-141.22;100.00;65034.22;4955529;29;20447;-49
2023/03/19 09:40:04;;;;;;;35.60;33.70;;;;;;;-141.22;100.00;65034.22;4955818;29;20446;-49
2023/03/19 09:42:48;;;;;;;33.37;31.67;;;;;;;-141.22;100.00;65034.22;4954534;28;20468;-44
2023/03/19 09:45:18;;;;;;;34.53;32.53;;;;;;;-141.22;100.00;65034.22;4954918;29;20473;-54
2023/03/19 09:47:49;;;;;;;34.77;32.87;;;;;;;-141.22;100.00;65034.22;4955157;29;20446;-45
2023/03/19 09:50:19;;;;;;;33.27;31.50;;;;;;;-141.22;100.00;65034.22;4953773;29;20447;-48
2023/03/19 09:52:51;;;;;;;33.77;32.00;;;;;;;-141.22;100.00;65034.22;4954427;28;20499;-50
2023/03/19 09:55:35;;;;;;;32.03;30.23;;;;;;;-141.22;100.00;65034.22;4954612;29;20479;-49
2023/03/19 09:58:12;;;;;;;33.10;30.80;;;;;;;-141.22;100.00;65034.22;4954973;28;20439;-47
2023/03/19 10:00:41;;;;;;;31.23;29.37;;;;;;;-141.22;100.00;65034.22;4915647;29;20429;-46
2023/03/19 10:03:25;;;;;;;31.40;29.60;;;;;;;-141.22;100.00;65034.22;4926640;29;21030;-49
2023/03/19 10:06:01;;;;;;;31.20;29.40;;;;;;;-141.22;100.00;65034.22;4954874;29;20972;-45
2023/03/19 10:08:46;;;;;;;30.63;28.97;;;;;;;-141.22;100.00;65034.22;4954596;29;20440;-47
2023/03/19 10:11:26;;;;;;;30.77;28.93;;;;;;;-141.22;100.00;65034.22;4953011;28;20458;-49
2023/03/19 10:14:04;;;;;;;28.23;26.80;;;;;;;-141.22;100.00;65034.22;4942552;29;20834;-46
2023/03/19 10:16:32;;;;;;;29.83;27.87;;;;;;;-141.22;100.00;65034.22;4935270;29;21006;-51
2023/03/19 10:19:03;;;;;;;29.47;27.57;;;;;;;-141.22;100.00;65034.22;4934753;29;20436;-47
2023/03/19 10:21:35;;;;;;;28.20;26.70;;;;;;;-141.22;100.00;65034.22;4929078;29;20468;-51
2023/03/19 10:24:11;;;;;;;30.70;28.80;;;;;;;-141.22;100.00;65034.22;4935229;29;20868;-51
2023/03/19 10:26:39;;;;;;;27.90;26.40;;;;;;;-141.22;100.00;65034.22;4935366;29;20444;-49
2023/03/19 10:29:09;;;;;;;30.00;28.30;;;;;;;-141.22;100.00;65034.22;4934835;29;20804;-49
2023/03/19 10:31:53;;;;;;;29.60;27.90;;;;;;;-141.22;100.00;65034.22;4935235;29;21028;-50
2023/03/19 10:34:31;;;;;;;28.83;27.13;;;;;;;-141.22;100.00;65034.22;4934801;29;20456;-53
2023/03/19 10:37:02;;;;;;;26.50;25.10;;;;;;;-141.22;100.00;65034.22;4936943;29;20444;-52
2023/03/19 10:39:33;;;;;;;26.40;24.90;;;;;;;-141.22;100.00;65034.22;4954061;29;20478;-50
2023/03/19 10:42:21;;;;;;;27.67;25.93;;;;;;;-141.22;100.00;65034.22;4953639;28;20463;-50
2023/03/19 10:44:53;;;;;;;29.23;27.53;;;;;;;-141.22;100.00;65034.22;4934896;29;20519;-50
2023/03/19 10:47:26;;;;;;;28.53;26.77;;;;;;;-141.22;100.00;65034.22;4935250;29;20504;-46
2023/03/19 10:49:56;;;;;;;29.60;27.80;;;;;;;-141.22;100.00;65034.22;4935335;29;20444;-49
2023/03/19 10:52:28;;;;;;;28.80;27.30;;;;;;;-141.22;100.00;65034.22;4932687;28;20473;-47
2023/03/19 10:55:02;;;;;;;29.43;27.33;;;;;;;-141.22;100.00;65034.22;4932253;29;20432;-47
2023/03/19 10:57:30;;;;;;;31.20;29.30;;;;;;;-141.22;100.00;65034.22;4941069;29;21024;-50